Time;durP1;ratioP1;P1;durP2;ratioP2;P2;SDS_P1;SDS_P2;PMS_P1;PMS_P2;Temp;Humidity;BMP_temperature;BMP_pressure;BME280_temperature;BME280_humidity;BME280_pressure;Samples;Min_cycle;Max_cycle;Signal;HPM_P1;HPM_P2
2021/10/25 00:00:27;;;;;;;9.55;8.65;;;18.10;88.70;;;22.01;42.65;95186.88;6067619;19;20014;-68
2021/10/25 00:02:29;;;;;;;8.75;8.05;;;18.00;88.60;;;22.01;43.04;95183.38;6077489;19;20040;-68
2021/10/25 00:04:31;;;;;;;7.95;7.15;;;18.00;88.60;;;22.00;42.72;95185.28;6082980;19;20474;-68
2021/10/25 00:06:31;;;;;;;7.97;7.28;;;18.00;88.60;;;21.99;43.03;95191.81;6077822;19;20074;-67
2021/10/25 00:08:32;;;;;;;7.28;6.65;;;18.00;88.60;;;21.97;42.75;95194.06;6071324;19;20550;-68
2021/10/25 00:10:34;;;;;;;8.05;7.45;;;18.00;88.60;;;21.97;42.84;95196.78;6082660;19;20026;-67
2021/10/25 00:12:35;;;;;;;7.57;6.78;;;18.00;88.70;;;21.95;43.03;95185.44;6080475;19;20018;-68
2021/10/25 00:14:36;;;;;;;8.23;7.53;;;18.00;88.70;;;21.95;43.14;95190.88;6102266;19;20788;-68
2021/10/25 00:16:38;;;;;;;7.90;7.10;;;18.00;88.70;;;21.95;42.91;95187.34;6093199;19;20022;-67
2021/10/25 00:18:39;;;;;;;7.72;7.13;;;18.00;88.70;;;21.93;42.75;95190.41;6090422;19;20017;-67
2021/10/25 00:20:40;;;;;;;8.20;7.50;;;18.00;88.80;;;21.92;42.72;95190.72;6100880;19;20866;-67
2021/10/25 00:22:41;;;;;;;8.18;7.50;;;18.00;88.70;;;21.90;42.68;95191.84;6085396;19;20847;-67
2021/10/25 00:24:42;;;;;;;7.90;7.10;;;18.00;88.80;;;21.92;42.77;95196.16;6095184;19;20082;-68
2021/10/25 00:26:44;;;;;;;7.18;6.57;;;18.00;88.80;;;21.89;43.02;95198.38;6072794;19;20582;-67
2021/10/25 00:28:44;;;;;;;7.38;6.75;;;17.90;88.70;;;21.90;42.94;95199.19;6078062;19;20015;-67
2021/10/25 00:30:46;;;;;;;7.93;7.32;;;17.90;88.70;;;21.89;43.07;95186.72;6067456;19;24690;-67
2021/10/25 00:32:47;;;;;;;6.18;5.68;;;17.90;88.80;;;21.88;42.97;95194.06;6065271;19;20018;-68
2021/10/25 00:34:48;;;;;;;6.70;6.20;;;17.90;88.70;;;21.88;43.23;95194.06;6071373;19;20546;-67
2021/10/25 00:36:49;;;;;;;7.20;6.60;;;17.90;88.80;;;21.88;42.68;95188.63;6083093;19;20023;-67
2021/10/25 00:38:50;;;;;;;7.40;6.80;;;17.90;88.80;;;21.85;42.75;95186.56;6102878;19;20024;-67
2021/10/25 00:40:53;;;;;;;6.72;6.22;;;17.90;88.70;;;21.85;42.81;95186.56;6097981;19;20358;-67
2021/10/25 00:42:54;;;;;;;7.15;6.35;;;17.90;88.70;;;21.83;42.67;95188.81;6104297;19;20036;-67
2021/10/25 00:44:55;;;;;;;7.47;6.78;;;17.90;88.70;;;21.82;43.07;95191.84;6109430;19;20018;-67
2021/10/25 00:46:56;;;;;;;6.50;6.00;;;17.90;88.70;;;21.82;42.79;95181.78;6107165;19;20014;-67
2021/10/25 00:48:59;;;;;;;7.05;6.45;;;17.90;88.70;;;21.80;42.84;95186.72;6096212;19;20109;-67
2021/10/25 00:51:02;;;;;;;7.22;6.63;;;17.90;88.70;;;21.80;42.94;95185.94;6087630;19;20035;-66
2021/10/25 00:53:03;;;;;;;6.88;6.35;;;17.90;88.70;;;21.79;43.06;95184.34;6080537;19;20006;-67
2021/10/25 00:55:08;;;;;;;6.90;6.32;;;17.90;88.70;;;21.78;43.02;95191.69;6088311;19;21030;-66
2021/10/25 00:57:08;;;;;;;6.82;5.90;;;17.90;88.70;;;21.78;43.23;95182.75;6105886;19;20022;-68
2021/10/25 00:59:11;;;;;;;7.22;6.53;;;17.90;88.70;;;21.77;42.86;95178.44;6112835;19;20067;-69
2021/10/25 01:01:12;;;;;;;6.68;6.07;;;17.90;88.70;;;21.78;43.20;95186.25;6113010;19;20014;-66
2021/10/25 01:03:13;;;;;;;6.60;6.00;;;17.80;88.70;;;21.76;42.76;95179.53;6107771;19;20049;-69
2021/10/25 01:05:14;;;;;;;6.32;5.82;;;17.80;88.70;;;21.75;43.26;95186.09;6111664;19;20003;-68
2021/10/25 01:07:16;;;;;;;6.95;6.35;;;17.80;88.70;;;21.74;43.12;95189.94;6113569;19;20522;-69
2021/10/25 01:09:18;;;;;;;7.53;6.80;;;17.80;88.70;;;21.72;43.17;95184.81;6112978;19;20289;-70
2021/10/25 01:11:19;;;;;;;7.10;6.57;;;17.80;88.70;;;21.70;43.02;95184.34;6110078;19;20018;-69
2021/10/25 01:13:20;;;;;;;6.18;5.68;;;17.80;88.80;;;21.70;42.97;95183.53;6110399;19;20368;-67
2021/10/25 01:15:21;;;;;;;6.07;5.57;;;17.80;88.70;;;21.70;42.73;95172.69;6113593;19;20096;-69
2021/10/25 01:17:28;;;;;;;5.75;5.25;;;17.80;88.70;;;21.70;42.92;95183.53;6110851;19;20021;-69
2021/10/25 01:19:31;;;;;;;6.38;5.88;;;17.80;88.70;;;21.69;42.94;95177.31;6113733;19;20026;-69
2021/10/25 01:21:33;;;;;;;5.65;5.25;;;17.80;88.60;;;21.67;43.15;95173.31;6113777;19;20390;-67
2021/10/25 01:23:34;;;;;;;6.30;5.80;;;17.80;88.50;;;21.67;43.01;95176.03;6112141;19;20542;-69
2021/10/25 01:28:58;;;;;;;6.10;5.60;;;17.80;88.40;;;21.60;43.06;95173.78;6107468;19;20005;-70
2021/10/25 01:30:59;;;;;;;5.72;5.22;;;17.70;88.20;;;21.61;43.05;95180.78;6108622;19;20026;-70
2021/10/25 01:33:00;;;;;;;6.82;6.22;;;17.70;88.20;;;21.61;43.18;95172.66;6112149;19;20006;-69
2021/10/25 01:35:01;;;;;;;6.22;5.72;;;17.70;88.10;;;21.61;42.86;95171.84;6111331;19;20389;-68
2021/10/25 01:37:05;;;;;;;5.95;5.45;;;17.70;88.00;;;21.60;43.00;95176.47;6103535;19;20011;-68
2021/10/25 01:39:08;;;;;;;4.93;4.53;;;17.70;88.00;;;21.61;42.83;95169.16;6080700;19;20018;-68
2021/10/25 01:41:09;;;;;;;5.28;4.80;;;17.70;88.10;;;21.60;42.96;95173.78;6074024;19;21231;-68
2021/10/25 01:43:10;;;;;;;5.50;5.03;;;17.70;88.20;;;21.59;42.97;95167.56;6073431;19;20015;-70
2021/10/25 01:45:13;;;;;;;6.05;5.55;;;17.70;88.20;;;21.59;43.09;95164.03;6086506;19;20034;-69
2021/10/25 01:47:14;;;;;;;6.22;4.95;;;17.70;88.20;;;21.59;42.83;95172.19;6103954;19;20006;-67
2021/10/25 01:49:15;;;;;;;5.45;5.05;;;17.70;88.10;;;21.56;42.80;95173.63;6099055;19;20035;-68
2021/10/25 01:51:16;;;;;;;5.85;5.20;;;17.70;88.20;;;21.57;43.18;95171.69;6051580;19;20003;-70
2021/10/25 01:53:17;;;;;;;5.65;5.25;;;17.70;88.10;;;21.57;42.83;95169.78;6046417;19;20029;-70
2021/10/25 01:55:26;;;;;;;4.53;4.10;;;17.60;88.00;;;21.56;43.19;95172.81;6061553;19;20462;-70
2021/10/25 01:57:27;;;;;;;5.70;5.30;;;17.70;88.20;;;21.56;42.76;95172.81;6058482;19;20010;-71
2021/10/25 01:59:30;;;;;;;4.75;4.38;;;17.70;88.10;;;21.55;42.83;95153.03;6070027;19;20010;-71
2021/10/25 02:01:31;;;;;;;5.38;4.97;;;17.70;88.20;;;;;;6063970;19;20032;-68
2021/10/25 02:03:33;;;;;;;5.50;5.10;;;17.60;88.00;;;21.54;42.79;95159.56;6067969;19;20078;-68
2021/10/25 02:05:40;;;;;;;5.03;4.63;;;17.60;87.90;;;21.52;43.26;95148.25;6061158;19;20019;-68
2021/10/25 02:07:43;;;;;;;5.03;4.63;;;17.60;87.90;;;21.51;42.99;95146.66;6064498;19;20011;-69
2021/10/25 02:09:44;;;;;;;4.25;3.95;;;17.60;87.90;;;21.51;43.04;95148.56;6066806;19;20019;-71
2021/10/25 02:11:46;;;;;;;4.70;4.38;;;17.60;87.90;;;21.49;42.78;95146.16;6068137;19;20076;-68
2021/10/25 02:13:47;;;;;;;4.95;4.55;;;17.60;87.90;;;21.48;43.12;95147.28;6107586;19;20014;-68
2021/10/25 02:15:48;;;;;;;4.72;4.32;;;17.60;87.90;;;21.47;43.28;95145.69;6109148;19;20033;-68
2021/10/25 02:17:52;;;;;;;5.55;5.07;;;17.60;88.00;;;21.46;43.06;95146.81;6093030;19;20013;-68
2021/10/25 02:19:53;;;;;;;5.13;4.72;;;17.60;88.10;;;21.46;43.35;95143.28;6059728;19;20007;-67
2021/10/25 02:22:00;;;;;;;4.80;4.40;;;17.60;88.20;;;21.45;43.40;95149.84;6076721;19;20014;-68
2021/10/25 02:24:01;;;;;;;5.13;4.72;;;17.60;88.20;;;21.44;43.31;95146.31;6080347;19;20033;-68
2021/10/25 02:26:03;;;;;;;4.63;4.32;;;17.60;88.20;;;21.42;43.43;95151.25;6051161;19;20043;-67
2021/10/25 02:28:05;;;;;;;5.13;4.72;;;17.60;88.30;;;21.42;43.48;95147.75;6069251;19;20010;-68
2021/10/25 02:30:06;;;;;;;4.53;4.10;;;17.60;88.40;;;21.40;43.18;95156.22;6067274;19;20188;-68
2021/10/25 02:32:09;;;;;;;4.45;4.15;;;17.50;88.30;;;21.41;43.12;95148.88;6046235;19;20075;-68
2021/10/25 02:34:09;;;;;;;4.65;4.30;;;17.60;88.40;;;21.39;43.29;95151.91;6042582;19;20026;-68
2021/10/25 02:36:11;;;;;;;4.35;4.05;;;17.60;88.40;;;21.39;43.21;95149.19;6038247;19;20086;-68
2021/10/25 02:38:14;;;;;;;;;;;17.50;88.40;;;21.39;43.26;95140.25;6071111;19;20018;-68
2021/10/25 02:40:21;;;;;;;4.40;4.10;;;17.50;88.40;;;21.36;43.05;95136.28;6067776;19;20397;-68
2021/10/25 02:42:22;;;;;;;;;;;17.50;88.50;;;21.36;42.99;95138.97;6070149;19;20026;-68
2021/10/25 02:44:25;;;;;;;4.32;4.03;;;17.50;88.40;;;21.36;43.33;95138.19;6037715;19;20376;-68
2021/10/25 02:46:25;;;;;;;5.03;4.63;;;17.50;88.40;;;21.36;43.54;95135.47;6053149;19;20034;-68
2021/10/25 02:48:27;;;;;;;4.20;3.90;;;17.50;88.40;;;21.35;43.35;95134.66;6062405;19;20533;-68
2021/10/25 02:50:28;;;;;;;4.15;3.85;;;17.50;88.50;;;21.36;43.25;95136.28;6053813;19;20047;-68
2021/10/25 02:52:29;;;;;;;4.47;4.18;;;17.50;88.50;;;21.35;43.31;95137.38;6039015;19;20010;-68
2021/10/25 02:54:32;;;;;;;3.63;3.43;;;17.50;88.40;;;21.36;43.14;95135.47;6053958;19;20015;-68
2021/10/25 02:56:33;;;;;;;4.65;4.35;;;17.50;88.40;;;21.35;43.21;95128.44;6055863;19;20028;-68
2021/10/25 02:58:35;;;;;;;3.75;3.53;;;17.50;88.30;;;21.34;42.96;95127.66;6063579;19;20014;-69
2021/10/25 03:00:35;;;;;;;3.88;3.58;;;17.50;88.30;;;21.34;43.44;95130.38;6061082;19;22019;-68
2021/10/25 03:02:43;;;;;;;4.13;3.58;;;17.50;88.20;;;21.33;43.21;95128.78;6054550;19;21350;-68
2021/10/25 03:04:44;;;;;;;3.47;3.28;;;17.50;88.20;;;21.33;43.32;95136.09;6023990;19;20011;-69
2021/10/25 03:06:44;;;;;;;3.88;3.58;;;17.50;88.20;;;21.33;43.17;95138.81;6049965;19;20013;-68
2021/10/25 03:08:47;;;;;;;4.17;3.87;;;17.50;88.20;;;21.32;43.27;95138.03;6076201;19;20017;-68
2021/10/25 03:10:48;;;;;;;4.10;3.80;;;17.40;88.10;;;21.32;43.25;95145.34;6056688;19;20015;-69
2021/10/25 03:12:49;;;;;;;4.05;3.75;;;17.40;88.20;;;21.31;43.47;95144.56;6081668;19;20369;-69
2021/10/25 03:14:50;;;;;;;3.80;3.40;;;17.40;88.10;;;21.31;43.22;95146.47;6080357;19;20077;-68
2021/10/25 03:16:51;;;;;;;4.50;4.10;;;17.40;88.10;;;21.29;43.25;95149.50;6086177;19;20043;-69
2021/10/25 03:18:52;;;;;;;4.07;3.78;;;17.40;88.00;;;21.28;43.33;95150.63;6055448;19;20034;-69
2021/10/25 03:20:53;;;;;;;3.42;3.22;;;17.50;88.10;;;21.27;43.31;95147.09;6068005;19;20018;-70
2021/10/25 03:22:56;;;;;;;3.40;3.20;;;17.40;87.90;;;21.26;43.13;95142.00;6061624;19;20018;-68
2021/10/25 03:24:57;;;;;;;3.50;3.28;;;17.40;87.70;;;21.26;43.21;95144.72;6078887;19;20094;-68
2021/10/25 03:26:58;;;;;;;3.83;3.53;;;17.40;87.40;;;21.24;43.23;95139.59;6079057;19;20048;-69
2021/10/25 03:28:59;;;;;;;3.50;3.30;;;17.40;87.30;;;21.24;42.86;95139.59;6074630;19;20070;-69
2021/10/25 03:31:00;;;;;;;3.03;2.83;;;17.40;87.30;;;21.23;42.89;95143.44;6084957;19;20028;-69
2021/10/25 03:33:02;;;;;;;3.67;3.38;;;17.40;87.40;;;21.22;42.97;95147.22;6071801;19;20022;-69
2021/10/25 03:35:24;;;;;;;3.30;3.00;;;17.40;87.40;;;21.22;42.85;95141.00;6071636;19;20579;-68
2021/10/25 03:37:26;;;;;;;3.05;2.85;;;17.40;87.40;;;21.21;42.79;95150.22;6077035;19;20023;-68
2021/10/25 03:39:31;;;;;;;3.88;3.58;;;17.40;87.40;;;21.19;43.14;95139.69;6079089;19;20015;-68
2021/10/25 03:41:38;;;;;;;3.15;2.92;;;17.40;87.40;;;21.20;43.05;95148.63;6072464;19;20002;-69
2021/10/25 03:43:47;;;;;;;3.58;3.28;;;17.30;87.30;;;21.19;43.07;95138.91;6069539;19;20019;-69
2021/10/25 03:45:57;;;;;;;3.58;3.28;;;17.30;87.40;;;21.19;43.31;95149.75;6079472;19;20007;-69
2021/10/25 03:48:04;;;;;;;4.63;3.60;;;17.40;87.40;;;21.17;43.10;95138.41;6081331;19;20022;-69
2021/10/25 03:50:11;;;;;;;3.53;3.22;;;17.30;87.40;;;21.18;42.80;95140.03;6074534;19;20070;-69
2021/10/25 03:52:29;;;;;;;3.75;3.53;;;17.40;87.50;;;21.16;43.13;95137.63;6085263;19;22553;-69
2021/10/25 03:54:51;;;;;;;3.35;3.15;;;17.30;87.40;;;21.14;42.94;95131.72;6088891;19;20054;-69
2021/10/25 04:03:24;;;;;;;3.38;3.17;;;17.30;87.50;;;21.12;43.00;95122.31;6068700;19;20010;-69
2021/10/25 04:25:48;;;;;;;2.72;2.53;;;17.30;87.60;;;21.05;43.21;95121.97;6078804;19;20115;-69
2021/10/25 04:30:02;;;;;;;3.33;3.00;;;17.20;87.60;;;21.04;43.00;95123.09;6063746;19;20101;-70
2021/10/25 04:32:07;;;;;;;2.75;2.55;;;17.30;87.60;;;21.04;43.30;95123.09;6063563;19;20070;-64
2021/10/25 04:34:09;;;;;;;3.35;3.10;;;17.30;88.40;;;21.05;43.17;95128.19;6064724;19;20014;-71
2021/10/25 04:36:33;;;;;;;3.22;2.92;;;17.20;87.40;;;21.06;42.96;95131.72;6073064;19;20034;-70
2021/10/25 04:38:52;;;;;;;3.20;3.00;;;17.20;87.40;;;21.05;42.88;95124.69;6056270;19;20013;-72
2021/10/25 04:40:53;;;;;;;4.72;3.92;;;17.20;87.40;;;21.06;43.14;95127.09;6061002;19;21114;-71
2021/10/25 04:42:56;;;;;;;7.40;4.18;;;17.20;87.50;;;21.05;43.43;95125.50;6049701;19;20014;-70
2021/10/25 04:44:57;;;;;;;8.60;4.68;;;17.20;87.60;;;21.05;43.47;95119.28;6056747;19;20043;-70
2021/10/25 04:46:58;;;;;;;6.60;4.07;;;17.20;87.70;;;21.06;43.11;95126.28;6043840;19;20875;-70
2021/10/25 04:48:59;;;;;;;5.90;4.53;;;17.20;87.80;;;21.06;43.15;95131.72;6068120;19;20014;-71
2021/10/25 04:51:34;;;;;;;9.67;4.60;;;17.20;87.90;;;21.06;43.52;95126.28;6062822;19;20018;-71
2021/10/25 04:53:47;;;;;;;6.30;4.03;;;17.20;87.90;;;21.04;43.39;95126.59;6069987;19;20014;-72
2021/10/25 04:55:48;;;;;;;9.07;4.30;;;17.20;87.90;;;21.05;43.48;95127.41;6076770;19;20021;-71
2021/10/25 04:57:49;;;;;;;6.32;4.13;;;17.20;87.90;;;21.05;43.27;95119.28;6078722;19;20014;-70
2021/10/25 04:59:50;;;;;;;7.72;4.43;;;17.20;87.90;;;21.02;43.14;95120.69;6065989;19;20007;-72
2021/10/25 05:01:51;;;;;;;6.75;3.95;;;17.20;87.90;;;21.02;43.13;95112.56;6067738;19;21889;-70
2021/10/25 05:03:55;;;;;;;5.78;3.72;;;17.20;87.90;;;21.02;43.22;95114.47;6061907;19;20070;-67
2021/10/25 05:05:56;;;;;;;4.75;3.95;;;17.20;87.90;;;21.01;43.08;95112.88;6068103;19;20028;-70
2021/10/25 05:07:57;;;;;;;6.70;4.05;;;17.20;88.70;;;21.01;43.30;95107.47;6055636;19;20015;-72
2021/10/25 05:09:58;;;;;;;7.20;4.22;;;17.10;87.80;;;20.99;43.23;95105.06;6067094;19;20072;-70
2021/10/25 05:12:02;;;;;;;4.43;3.78;;;17.20;87.80;;;21.00;43.34;95106.66;6068165;19;20101;-71
2021/10/25 05:14:04;;;;;;;5.68;4.20;;;17.10;87.60;;;20.99;43.12;95098.84;6057462;19;20014;-72
2021/10/25 05:16:06;;;;;;;6.95;4.00;;;17.20;87.70;;;20.98;43.00;95102.69;6073909;19;20011;-71
2021/10/25 05:18:09;;;;;;;5.95;3.75;;;17.20;87.70;;;20.95;43.41;95099.50;6081372;19;20022;-69
2021/10/25 05:20:10;;;;;;;6.07;3.92;;;17.10;87.40;;;20.95;43.23;95101.41;6075810;19;20006;-69
2021/10/25 05:22:19;;;;;;;6.13;3.83;;;17.10;87.40;;;20.94;43.01;95097.09;6077755;19;20711;-69
2021/10/25 05:24:20;;;;;;;6.45;4.45;;;17.10;87.30;;;20.93;42.96;95096.28;6075438;19;20010;-71
2021/10/25 05:26:21;;;;;;;5.68;4.00;;;17.10;87.30;;;20.93;43.03;95093.59;6080158;19;20089;-69
2021/10/25 05:28:22;;;;;;;6.18;4.38;;;17.10;87.20;;;20.92;43.35;95094.69;6073108;19;20369;-73
2021/10/25 05:30:23;;;;;;;4.13;3.70;;;17.10;87.10;;;20.91;43.36;95093.09;6076800;19;20338;-71
2021/10/25 05:32:24;;;;;;;3.65;3.33;;;17.10;86.90;;;20.91;43.26;95086.88;6079604;19;20772;-71
2021/10/25 05:34:25;;;;;;;5.43;3.80;;;17.10;87.00;;;20.90;43.38;95091.50;6084898;19;20007;-72
2021/10/25 05:36:28;;;;;;;5.07;4.38;;;17.10;88.20;;;20.92;43.64;95083.84;6072035;19;20015;-70
2021/10/25 05:38:29;;;;;;;5.15;3.97;;;17.10;90.50;;;20.93;44.12;95082.75;6083554;19;20058;-70
2021/10/25 05:40:32;;;;;;;8.40;4.35;;;17.10;91.00;;;20.94;44.32;95087.06;6068989;19;20014;-69
2021/10/25 05:42:36;;;;;;;6.03;4.38;;;17.10;91.20;;;20.98;44.26;95086.41;6072943;19;20728;-69
2021/10/25 05:44:38;;;;;;;7.43;4.78;;;17.10;91.50;;;20.99;44.50;95088.81;6076071;19;20038;-70
2021/10/25 05:46:39;;;;;;;6.72;4.00;;;17.10;91.50;;;21.00;44.14;95090.41;6084597;19;20014;-73
2021/10/25 05:48:41;;;;;;;4.85;4.00;;;17.10;91.60;;;21.01;44.40;95086.59;6072208;19;20007;-69
2021/10/25 05:50:45;;;;;;;6.63;3.78;;;17.10;91.60;;;21.01;44.38;95086.59;6081816;19;20014;-69
2021/10/25 05:52:46;;;;;;;7.03;3.67;;;17.10;91.50;;;21.01;44.46;95083.06;6078858;19;20014;-69
2021/10/25 05:54:48;;;;;;;4.80;3.53;;;17.10;91.50;;;21.01;44.21;95089.28;6076405;19;20014;-72
2021/10/25 05:56:51;;;;;;;3.78;3.30;;;17.10;91.60;;;21.02;44.57;95087.38;6082650;19;20042;-71
2021/10/25 05:58:52;;;;;;;6.50;3.33;;;17.10;91.60;;;21.03;44.54;95094.41;6069262;19;21209;-70
2021/10/25 06:00:58;;;;;;;7.88;3.70;;;17.10;91.60;;;21.03;44.51;95102.53;6079020;19;20010;-73
2021/10/25 06:03:34;;;;;;;5.22;2.90;;;17.10;91.70;;;21.01;44.47;95096.63;6077700;19;20069;-70
2021/10/25 06:05:37;;;;;;;4.80;3.83;;;17.10;91.50;;;20.99;44.16;95096.94;6085081;19;20411;-72
2021/10/25 06:07:40;;;;;;;6.43;3.78;;;17.10;91.40;;;20.98;44.63;95100.75;6072738;19;20010;-71
2021/10/25 06:09:41;;;;;;;5.45;3.13;;;17.10;91.30;;;20.98;44.65;95097.25;6062709;19;20029;-70
2021/10/25 06:11:45;;;;;;;3.92;3.53;;;17.00;91.20;;;20.96;44.18;95095.66;6074817;19;20011;-75
2021/10/25 06:13:46;;;;;;;8.45;3.90;;;17.10;91.20;;;20.95;44.20;95098.69;6077961;19;20303;-70
2021/10/25 06:15:56;;;;;;;4.85;3.17;;;17.10;91.10;;;20.94;44.04;95102.50;6086202;19;20035;-70
2021/10/25 06:17:58;;;;;;;3.67;3.25;;;17.00;91.00;;;20.93;44.14;95098.22;6087894;19;20022;-71
2021/10/25 06:19:59;;;;;;;5.03;3.17;;;17.00;90.90;;;20.92;44.45;95102.81;6088418;19;20010;-68
2021/10/25 06:22:00;;;;;;;7.80;3.22;;;17.00;90.90;;;20.91;44.47;95103.16;6069443;19;20009;-72
2021/10/25 06:24:06;;;;;;;3.88;3.53;;;17.00;90.80;;;20.90;44.40;95102.34;6062761;19;20007;-64
2021/10/25 06:26:33;;;;;;;3.95;3.28;;;17.00;90.70;;;20.90;44.26;95101.53;6107200;19;20367;-65
2021/10/25 06:28:34;;;;;;;3.58;3.15;;;17.00;90.70;;;20.88;43.88;95101.06;6110424;19;20022;-63
2021/10/25 06:30:38;;;;;;;3.20;2.90;;;17.00;90.70;;;20.87;44.28;95097.56;6102178;19;20014;-64
2021/10/25 06:32:39;;;;;;;3.15;2.95;;;17.00;90.70;;;20.85;44.43;95110.63;6103396;19;20471;-63
2021/10/25 06:34:58;;;;;;;3.90;3.38;;;17.00;90.60;;;20.85;44.33;95099.00;6111695;19;20006;-65
2021/10/25 06:37:27;;;;;;;3.78;2.85;;;17.00;90.50;;;20.83;44.10;95106.63;6108992;19;20106;-63
2021/10/25 06:39:39;;;;;;;4.43;3.33;;;17.00;90.40;;;20.82;44.04;95111.25;6107774;19;20015;-63
2021/10/25 06:41:40;;;;;;;4.63;3.28;;;17.00;90.30;;;20.82;44.05;95118.59;6103269;19;20649;-65
2021/10/25 06:43:45;;;;;;;3.67;3.10;;;17.00;90.20;;;20.80;44.08;95121.59;6097999;19;20035;-65
2021/10/25 06:45:49;;;;;;;3.30;3.00;;;17.00;90.10;;;20.80;43.98;95116.16;6104296;19;20025;-65
2021/10/25 06:47:53;;;;;;;3.17;2.67;;;17.00;90.00;;;20.79;43.85;95117.28;6106897;19;20463;-65
2021/10/25 06:49:54;;;;;;;4.63;3.55;;;17.00;89.80;;;20.80;43.62;95121.59;6105618;19;20463;-65
2021/10/25 06:51:56;;;;;;;2.72;2.38;;;17.00;89.60;;;20.81;43.65;95119.66;6107796;19;20081;-65
2021/10/25 06:53:59;;;;;;;4.82;3.08;;;17.00;89.50;;;20.81;43.95;95114.25;6107753;19;20011;-65
2021/10/25 06:56:04;;;;;;;4.45;3.08;;;17.00;89.20;;;20.79;43.92;95122.69;6107687;19;20297;-64
2021/10/25 06:58:05;;;;;;;2.97;2.65;;;17.00;89.00;;;20.78;43.91;95121.09;6097501;19;20850;-63
2021/10/25 07:00:10;;;;;;;5.22;2.50;;;17.00;88.90;;;20.79;43.83;95128.13;6095586;19;20011;-65
2021/10/25 07:02:13;;;;;;;3.50;3.03;;;17.00;88.70;;;20.78;43.62;95129.22;6097700;19;20476;-65
2021/10/25 07:04:16;;;;;;;5.05;3.55;;;17.00;88.50;;;20.78;43.40;95126.50;6094816;19;20034;-64
2021/10/25 07:06:17;;;;;;;3.60;2.60;;;17.00;88.40;;;20.79;43.57;95122.69;6092641;19;20011;-64
2021/10/25 07:08:18;;;;;;;3.65;2.70;;;17.00;88.30;;;20.79;43.35;95122.69;6097000;19;20022;-64
2021/10/25 07:10:26;;;;;;;2.70;2.25;;;16.90;88.10;;;20.78;43.47;95129.22;6095316;19;20011;-66
2021/10/25 07:12:27;;;;;;;2.78;2.15;;;17.00;88.00;;;20.77;43.40;95135.75;6106716;19;20010;-66
2021/10/25 07:14:35;;;;;;;2.47;2.22;;;16.90;88.00;;;20.76;43.44;95134.16;6108997;19;20688;-68
2021/10/25 07:23:28;;;;;;;2.53;2.33;;;16.90;87.80;;;20.76;43.37;95136.06;6110336;19;20007;-69
2021/10/25 08:07:31;;;;;;;1.98;1.77;;;16.80;86.30;;;20.58;42.96;95152.25;6104985;19;20031;-65
2021/10/25 08:09:54;;;;;;;2.38;2.17;;;16.80;86.10;;;20.57;43.41;95147.16;6109643;19;20390;-65
2021/10/25 08:11:59;;;;;;;4.65;2.45;;;16.90;87.80;;;20.60;44.31;95144.63;6106182;19;20378;-65
2021/10/25 08:14:05;;;;;;;2.92;2.38;;;16.90;90.30;;;20.65;44.75;95140.97;6101936;19;20011;-64
2021/10/25 08:16:20;;;;;;;5.03;2.63;;;16.90;91.40;;;20.70;44.90;95145.44;6100910;19;20015;-66
2021/10/25 08:20:29;;;;;;;4.13;2.60;;;16.90;91.50;;;20.74;44.39;95149.13;6098970;19;20026;-64
2021/10/25 08:22:33;;;;;;;4.13;2.28;;;16.90;91.10;;;20.75;44.33;95146.09;6102652;19;20458;-65
2021/10/25 08:24:36;;;;;;;;;;;16.90;90.90;;;20.76;44.14;95142.28;6106008;19;20077;-64
2021/10/25 08:26:45;;;;;;;4.43;2.65;;;16.90;90.70;;;20.75;43.91;95137.97;6114254;19;19922;-67
2021/10/25 08:28:45;;;;;;;2.42;2.13;;;16.90;90.50;;;20.76;44.10;95133.38;6110751;19;20361;-67
2021/10/25 08:30:48;;;;;;;2.47;2.28;;;16.90;90.30;;;20.77;44.00;95140.38;6110898;19;20025;-66
2021/10/25 08:40:10;;;;;;;4.13;2.03;;;16.90;89.90;;;20.74;43.76;95141.00;6111309;19;20014;-66
2021/10/25 08:42:12;;;;;;;2.00;1.80;;;16.90;89.40;;;20.74;43.94;95143.72;6116040;19;20011;-66
2021/10/25 08:44:15;;;;;;;4.28;1.95;;;16.90;89.20;;;20.74;43.67;95141.00;6108020;19;20018;-66
2021/10/25 08:46:20;;;;;;;2.63;2.03;;;16.90;89.00;;;20.74;43.61;95136.38;6112430;19;20364;-65
2021/10/25 08:48:22;;;;;;;1.88;1.75;;;16.90;88.80;;;20.75;43.71;95135.28;6071559;19;20824;-65
2021/10/25 08:50:30;;;;;;;1.73;1.60;;;16.90;88.70;;;20.75;43.26;95135.28;6085015;19;20010;-65
2021/10/25 08:52:31;;;;;;;1.52;1.42;;;16.90;88.50;;;20.76;43.60;95139.56;6083384;19;20035;-65
2021/10/25 08:54:33;;;;;;;1.83;1.73;;;16.90;88.40;;;20.77;43.19;95129.53;6089377;19;20007;-65
2021/10/25 08:56:34;;;;;;;3.65;1.50;;;16.90;88.10;;;20.77;43.29;95129.53;6085914;19;20567;-65
2021/10/25 08:58:52;;;;;;;2.22;2.03;;;16.90;88.80;;;20.78;43.09;95131.13;6084203;19;21398;-65
2021/10/25 09:00:55;;;;;;;3.50;1.83;;;16.90;88.00;;;20.77;43.04;95130.34;6084767;19;20013;-65
2021/10/25 09:03:20;;;;;;;1.98;1.70;;;16.90;87.90;;;20.77;43.65;95133.03;6086691;19;20487;-65
2021/10/25 09:05:23;;;;;;;1.77;1.67;;;16.90;88.20;;;20.77;43.17;95129.53;6087059;19;20010;-64
2021/10/25 09:07:24;;;;;;;2.53;1.70;;;16.90;88.60;;;20.78;43.20;95123.81;6088596;19;20014;-64
2021/10/25 09:09:29;;;;;;;2.00;1.80;;;16.90;88.60;;;20.80;43.39;95126.19;6096174;19;20031;-64
2021/10/25 09:11:32;;;;;;;2.22;2.05;;;16.90;88.60;;;20.80;43.32;95123.50;6087111;19;20018;-64
2021/10/25 09:13:43;;;;;;;4.20;1.90;;;16.90;89.10;;;20.80;43.51;95121.59;6081086;19;20014;-65
2021/10/25 09:15:58;;;;;;;1.95;1.65;;;16.90;88.40;;;20.81;43.33;95125.91;6086372;19;20018;-65
2021/10/25 09:18:28;;;;;;;2.92;1.73;;;16.90;88.30;;;20.81;43.24;95128.63;6089782;19;20037;-64
2021/10/25 09:20:47;;;;;;;1.75;1.65;;;16.90;88.20;;;20.81;43.31;95127.78;6081986;19;20368;-64
2021/10/25 09:23:07;;;;;;;2.55;1.83;;;16.90;88.20;;;20.81;43.32;95128.63;6086441;19;21430;-64
2021/10/25 09:25:12;;;;;;;2.38;1.90;;;16.90;88.10;;;20.81;43.31;95133.22;6090340;19;20379;-65
2021/10/25 09:27:38;;;;;;;1.48;1.38;;;16.90;88.00;;;20.80;43.08;95124.28;6092607;19;20018;-65
2021/10/25 09:29:45;;;;;;;2.50;1.98;;;16.90;87.90;;;20.81;43.42;95120.50;6079328;19;20014;-65
2021/10/25 09:31:59;;;;;;;1.70;1.30;;;16.90;87.80;;;20.81;43.31;95125.91;6085742;19;20022;-64
2021/10/25 09:34:12;;;;;;;1.77;1.63;;;16.90;87.70;;;20.81;43.21;95117.78;6089911;19;20024;-64
2021/10/25 09:36:57;;;;;;;1.48;1.38;;;16.90;87.80;;;20.81;43.18;95119.66;6070912;19;20003;-65
2021/10/25 09:39:14;;;;;;;1.92;1.80;;;16.90;87.60;;;20.81;43.27;95115.06;6071061;19;20014;-65
2021/10/25 09:50:29;;;;;;;2.22;1.88;;;16.90;87.10;;;20.81;42.98;95112.38;6076666;19;20010;-64
2021/10/25 09:52:41;;;;;;;2.58;1.52;;;16.90;87.00;;;20.82;43.26;95116.69;6079012;19;20015;-65
2021/10/25 09:55:03;;;;;;;1.90;1.73;;;16.90;86.90;;;20.82;43.14;95108.53;6082528;19;20026;-65
2021/10/25 09:57:10;;;;;;;1.52;1.42;;;17.00;87.00;;;20.82;42.99;95105.84;6092203;19;20018;-65
2021/10/25 09:59:58;;;;;;;1.52;1.42;;;17.00;86.80;;;20.82;42.80;95095.00;6077681;19;20018;-64
2021/10/25 10:02:16;;;;;;;2.10;2.00;;;17.00;86.70;;;20.81;42.98;95101.53;5981584;19;2004401;-65
2021/10/25 10:04:18;;;;;;;2.10;1.90;;;17.00;86.70;;;20.83;42.90;95103.94;6081924;19;20123;-64
2021/10/25 10:06:39;;;;;;;1.92;1.75;;;17.00;86.60;;;20.83;43.10;95096.59;6060834;19;23017;-65
2021/10/25 10:08:40;;;;;;;3.55;2.17;;;17.00;86.60;;;20.84;42.75;95091.97;6047971;19;20014;-65
2021/10/25 10:10:56;;;;;;;1.88;1.77;;;17.00;86.50;;;20.85;42.92;95094.38;6056332;19;20031;-64
2021/10/25 10:12:58;;;;;;;1.70;1.60;;;17.00;86.50;;;20.86;42.77;95101.38;6052727;19;21300;-64
2021/10/25 10:15:05;;;;;;;2.50;2.30;;;17.00;86.30;;;20.87;42.89;95099.47;6064064;19;20031;-70
2021/10/25 10:17:32;;;;;;;2.05;1.85;;;17.00;86.30;;;20.89;42.63;95097.25;6038111;19;20021;-71
2021/10/25 10:19:34;;;;;;;2.00;1.90;;;17.00;86.30;;;20.87;42.70;95086.72;6052905;19;20030;-70
2021/10/25 10:21:58;;;;;;;1.98;1.75;;;17.00;86.20;;;20.89;42.67;95087.19;6041300;19;20015;-71
2021/10/25 10:24:04;;;;;;;3.05;1.80;;;17.00;86.10;;;20.90;42.53;95094.22;6047191;19;20011;-71
2021/10/25 10:26:14;;;;;;;2.08;1.88;;;17.00;86.10;;;20.91;42.57;95087.69;6044816;19;20010;-71